Time;durP1;ratioP1;P1;durP2;ratioP2;P2;SDS_P1;SDS_P2;PMS_P1;PMS_P2;Temp;Humidity;BMP_temperature;BMP_pressure;BME280_temperature;BME280_humidity;BME280_pressure;Samples;Min_cycle;Max_cycle;Signal;HPM_P1;HPM_P2
2022/02/03 00:02:17;;;;;;;1.50;1.27;;;;;;;7.00;100.00;101087.50;4983854;28;20367;-84
2022/02/03 00:04:56;;;;;;;2.90;2.00;;;;;;;6.88;100.00;101069.09;4986140;28;20040;-86
2022/02/03 00:07:30;;;;;;;3.30;2.00;;;;;;;6.99;100.00;101079.63;4984794;28;20045;-86
2022/02/03 00:10:24;;;;;;;5.53;4.10;;;;;;;6.94;100.00;101076.56;5004135;28;20128;-86
2022/02/03 00:24:15;;;;;;;8.13;3.60;;;;;;;6.96;100.00;101078.09;4997713;28;20030;-85
2022/02/03 00:27:01;;;;;;;4.55;2.33;;;;;;;7.00;100.00;101084.81;4968657;28;20027;-86
2022/02/03 00:32:42;;;;;;;1.27;1.08;;;;;;;6.98;100.00;101076.09;5004162;28;20034;-86
2022/02/03 00:35:25;;;;;;;1.05;0.95;;;;;;;6.98;100.00;101069.91;5004438;28;20066;-87
2022/02/03 00:51:22;;;;;;;3.80;1.85;;;;;;;7.00;100.00;101044.72;4991008;28;20025;-87
2022/02/03 00:53:48;;;;;;;5.78;2.95;;;;;;;6.97;100.00;101031.66;4986260;28;20636;-86
2022/02/03 00:56:16;;;;;;;1.63;1.45;;;;;;;6.88;100.00;101011.16;5006922;28;20030;-87
2022/02/03 00:58:54;;;;;;;3.90;2.38;;;;;;;6.98;100.00;101017.28;4997101;28;20038;-86
2022/02/03 01:01:24;;;;;;;3.40;2.42;;;;;;;6.93;100.00;101000.00;5002485;28;20037;-85
2022/02/03 01:04:03;;;;;;;3.63;2.25;;;;;;;7.01;100.00;101005.47;4988155;28;20034;-87
2022/02/03 01:06:30;;;;;;;4.22;2.72;;;;;;;7.03;100.00;101007.00;4988343;28;20033;-88
2022/02/03 01:08:56;;;;;;;3.00;2.22;;;;;;;7.02;100.00;101001.81;4985346;28;20782;-88
2022/02/03 01:11:35;;;;;;;5.00;2.83;;;;;;;7.00;100.00;100983.22;5002400;28;20100;-87
2022/02/03 01:14:23;;;;;;;9.25;1.67;;;;;;;7.08;100.00;100989.69;5003867;28;20034;-86
2022/02/03 01:17:18;;;;;;;7.22;1.48;;;;;;;7.04;100.00;100987.31;4990811;28;20042;-87
2022/02/03 01:20:18;;;;;;;6.97;2.78;;;;;;;7.02;100.00;100980.44;4997277;28;20034;-87
2022/02/03 01:47:28;;;;;;;1.80;1.25;;;;;;;7.11;100.00;100946.59;5002200;28;20042;-86
2022/02/03 01:52:25;;;;;;;4.50;2.30;;;;;;;7.13;100.00;100949.97;5007084;28;20058;-87
2022/02/03 01:54:52;;;;;;;1.15;0.85;;;;;;;7.05;100.00;100940.84;5002874;28;20510;-83
2022/02/03 01:57:21;;;;;;;4.10;1.35;;;;;;;6.95;100.00;100937.38;5007387;28;20042;-86
2022/02/03 01:59:55;;;;;;;5.95;2.25;;;;;;;6.86;100.00;100940.97;5002488;28;20034;-86
2022/02/03 02:02:27;;;;;;;2.97;1.48;;;;;;;6.71;100.00;100932.56;4985599;28;20128;-88
2022/02/03 02:04:56;;;;;;;8.07;3.00;;;;;;;6.67;100.00;100935.66;4984785;28;20387;-86
2022/02/03 02:07:57;;;;;;;2.00;1.25;;;;;;;6.58;100.00;100946.25;5018085;28;20041;-88
2022/02/03 02:13:41;;;;;;;2.55;1.90;;;;;;;6.29;100.00;100934.78;5014935;28;20080;-84
2022/02/03 02:19:05;;;;;;;1.08;0.98;;;;;;;6.09;100.00;100934.84;5000228;28;20037;-86
2022/02/03 02:43:48;;;;;;;;;;;;;;;6.70;100.00;100911.34;4990095;28;20029;-86
2022/02/03 02:46:17;;;;;;;9.43;3.10;;;;;;;6.55;100.00;100886.94;5002687;28;20052;-87
2022/02/03 02:49:11;;;;;;;3.03;1.63;;;;;;;6.69;100.00;100901.63;5003267;28;20030;-85
2022/02/03 02:51:54;;;;;;;5.53;2.90;;;;;;;6.81;100.00;100905.81;4987846;28;20055;-85
2022/02/03 03:36:11;;;;;;;4.93;2.45;;;;;;;7.01;100.00;100847.72;5007881;28;20034;-83
2022/02/03 03:38:45;;;;;;;2.40;1.23;;;;;;;7.04;100.00;100856.31;4986549;28;20034;-86
2022/02/03 03:41:14;;;;;;;6.28;2.50;;;;;;;6.93;100.00;100837.81;4992367;28;20088;-86
2022/02/03 03:43:44;;;;;;;2.40;1.52;;;;;;;6.92;100.00;100854.81;4983808;28;21296;-85
2022/02/03 03:46:19;;;;;;;4.15;1.50;;;;;;;7.05;100.00;100870.50;4983550;28;20391;-86
2022/02/03 03:49:05;;;;;;;2.25;1.20;;;;;;;7.09;100.00;100863.84;5001274;28;20088;-86
2022/02/03 03:51:55;;;;;;;2.75;1.30;;;;;;;7.11;100.00;100856.53;5000309;28;20026;-83
2022/02/03 03:54:42;;;;;;;1.92;1.17;;;;;;;7.07;100.00;100852.47;5004468;28;20029;-86
2022/02/03 04:00:33;;;;;;;11.90;2.22;;;;;;;6.85;100.00;100805.59;4983331;28;20056;-86
2022/02/03 04:30:09;;;;;;;2.70;1.65;;;;;;;7.16;100.00;100813.28;5003976;28;20065;-86
2022/02/03 04:33:06;;;;;;;2.20;0.82;;;;;;;7.18;100.00;100816.66;5006196;28;20491;-86
2022/02/03 05:08:01;;;;;;;5.15;1.38;;;;;;;6.98;100.00;100789.22;5002980;28;20049;-86
2022/02/03 05:10:54;;;;;;;2.30;1.05;;;;;;;6.81;100.00;100786.38;5017036;28;20042;-87
2022/02/03 05:34:11;;;;;;;11.48;2.40;;;;;;;6.32;100.00;100747.56;4988668;28;20037;-85
2022/02/03 05:47:58;;;;;;;5.38;1.33;;;;;;;6.67;100.00;100761.97;4986598;28;20049;-87
2022/02/03 06:04:09;;;;;;;5.40;1.70;;;;;;;6.93;100.00;100740.72;4999568;28;20050;-86
2022/02/03 06:14:21;;;;;;;1.17;0.88;;;;;;;6.92;100.00;100723.84;4997229;28;20037;-86
2022/02/03 06:22:26;;;;;;;5.40;1.40;;;;;;;6.93;100.00;100717.50;5003434;28;20575;-89
2022/02/03 06:27:27;;;;;;;2.40;1.10;;;;;;;6.93;100.00;100719.31;5001231;28;20037;-85
2022/02/03 06:29:56;;;;;;;2.50;1.25;;;;;;;6.82;100.00;100696.34;5009620;28;20121;-85
2022/02/03 06:32:25;;;;;;;3.78;1.42;;;;;;;6.89;100.00;100702.75;5006498;28;20044;-85
2022/02/03 06:34:52;;;;;;;0.68;0.68;;;;;;;6.87;100.00;100701.25;5003436;28;20092;-87
2022/02/03 06:37:21;;;;;;;3.50;1.40;;;;;;;6.79;100.00;100681.44;4993432;28;20068;-87
2022/02/03 06:39:46;;;;;;;1.25;0.70;;;;;;;6.85;100.00;100669.31;4987287;28;20069;-86
2022/02/03 06:42:12;;;;;;;3.40;1.17;;;;;;;7.04;100.00;100679.84;4996848;28;20060;-86
2022/02/03 06:47:28;;;;;;;3.03;0.82;;;;;;;6.91;100.00;100675.91;5009340;28;20400;-87
2022/02/03 06:57:28;;;;;;;0.70;0.70;;;;;;;7.08;100.00;100661.66;5004645;28;20066;-87
2022/02/03 07:00:01;;;;;;;4.50;1.90;;;;;;;7.02;100.00;100647.06;5001670;28;20034;-86
2022/02/03 07:02:30;;;;;;;7.50;1.30;;;;;;;7.12;100.00;100659.50;4973971;28;20121;-85
2022/02/03 07:04:57;;;;;;;6.65;1.10;;;;;;;6.97;100.00;100638.69;4987697;28;20077;-86
2022/02/03 07:07:24;;;;;;;1.95;1.10;;;;;;;7.11;100.00;100658.66;5001088;28;20046;-84
2022/02/03 07:09:53;;;;;;;1.13;0.82;;;;;;;7.12;100.00;100657.69;5001465;28;20100;-85
2022/02/03 07:12:20;;;;;;;3.30;1.10;;;;;;;7.12;100.00;100655.00;5001581;28;20104;-86
2022/02/03 07:14:46;;;;;;;2.08;1.38;;;;;;;7.14;100.00;100657.50;5004405;28;20100;-85
2022/02/03 07:17:12;;;;;;;1.95;0.93;;;;;;;7.14;100.00;100657.50;5007621;28;20513;-85
2022/02/03 07:19:45;;;;;;;2.30;1.27;;;;;;;7.06;100.00;100644.91;4991480;28;20506;-85
2022/02/03 07:22:11;;;;;;;10.80;4.82;;;;;;;7.13;100.00;100653.16;4986951;28;20026;-88
2022/02/03 07:24:37;;;;;;;3.63;1.70;;;;;;;7.12;100.00;100651.47;5006689;28;20384;-85
2022/02/03 07:27:02;;;;;;;6.85;3.00;;;;;;;7.10;100.00;100656.16;5000572;28;20029;-86
2022/02/03 07:29:28;;;;;;;3.75;1.15;;;;;;;6.96;100.00;100631.66;4991340;28;20033;-86
2022/02/03 07:31:54;;;;;;;12.10;5.00;;;;;;;7.07;100.00;100645.78;5007558;28;20051;-86
2022/02/03 07:34:20;;;;;;;16.83;9.32;;;;;;;7.13;100.00;100653.16;4988941;28;20488;-89
2022/02/03 07:36:47;;;;;;;6.78;2.63;;;;;;;7.11;100.00;100652.47;5006796;28;20125;-84
2022/02/03 07:39:16;;;;;;;12.88;3.78;;;;;;;7.14;100.00;100654.84;4991056;28;20038;-86
2022/02/03 07:41:42;;;;;;;28.63;3.65;;;;;;;7.12;100.00;100649.66;5005448;28;20034;-85
2022/02/03 07:44:08;;;;;;;12.93;5.03;;;;;;;6.90;100.00;100613.56;4992350;28;20042;-86
2022/02/03 07:46:35;;;;;;;10.80;3.60;;;;;;;7.10;100.00;100638.28;5008024;28;20038;-85
2022/02/03 07:49:02;;;;;;;2.97;1.73;;;;;;;7.03;100.00;100646.06;5006491;28;20025;-86
2022/02/03 07:51:28;;;;;;;15.40;5.40;;;;;;;6.94;100.00;100635.50;5005647;28;20039;-86
2022/02/03 07:53:53;;;;;;;16.77;7.20;;;;;;;6.92;100.00;100649.00;4981420;28;20042;-88
2022/02/03 07:58:54;;;;;;;32.92;11.45;;;;;;;6.78;100.00;100617.50;1220889;26;20147;-85
2022/02/03 08:01:21;;;;;;;22.80;8.80;;;;;;;6.74;100.00;100624.94;4978739;28;20038;-86
2022/02/03 08:03:47;;;;;;;6.63;3.03;;;;;;;6.67;100.00;100625.72;4983336;28;20030;-86
2022/02/03 08:06:30;;;;;;;3.05;1.80;;;;;;;6.73;100.00;100627.78;4990071;28;21582;-87
2022/02/03 08:09:05;;;;;;;12.45;3.95;;;;;;;6.82;100.00;100624.19;4957974;28;20050;-87
2022/02/03 08:11:36;;;;;;;7.30;2.78;;;;;;;6.86;100.00;100619.38;4979684;28;20058;-87
2022/02/03 08:14:16;;;;;;;4.25;1.60;;;;;;;6.90;100.00;100613.56;4987100;28;20036;-88
2022/02/03 08:16:49;;;;;;;7.47;2.97;;;;;;;6.97;100.00;100611.13;4992411;28;20547;-86
2022/02/03 08:19:24;;;;;;;8.68;2.70;;;;;;;6.94;100.00;100604.25;4984749;28;20053;-88
2022/02/03 08:22:04;;;;;;;2.17;1.50;;;;;;;6.91;100.00;100599.22;4974638;28;20547;-87
2022/02/03 08:24:45;;;;;;;8.35;2.97;;;;;;;7.05;100.00;100590.63;4957611;28;20034;-85
2022/02/03 08:32:46;;;;;;;7.65;2.30;;;;;;;7.46;100.00;100590.00;4992858;28;20038;-86
2022/02/03 08:37:58;;;;;;;4.78;2.15;;;;;;;7.67;100.00;100589.59;4991117;28;20038;-89
2022/02/03 08:40:30;;;;;;;8.20;2.55;;;;;;;7.85;100.00;100584.97;4977753;28;20388;-87
2022/02/03 08:42:56;;;;;;;5.13;2.33;;;;;;;7.97;100.00;100569.47;4989436;28;20030;-85
2022/02/03 08:45:21;;;;;;;14.18;5.13;;;;;;;8.08;100.00;100571.00;4985127;28;20033;-88
2022/02/03 08:47:47;;;;;;;12.63;4.50;;;;;;;8.22;100.00;100577.56;4972110;28;20034;-84
2022/02/03 08:50:13;;;;;;;10.60;4.38;;;;;;;8.18;100.00;100568.16;4968864;28;20041;-88
2022/02/03 08:53:04;;;;;;;11.48;4.70;;;;;;;8.36;100.00;100584.94;4979980;28;20048;-85
2022/02/03 09:41:57;;;;;;;27.45;5.10;;;;;;;8.21;100.00;100528.50;4993909;28;20034;-86
2022/02/03 09:55:15;;;;;;;10.35;3.15;;;;;;;8.56;100.00;100542.59;5003367;28;20167;-86
2022/02/03 10:00:28;;;;;;;24.55;5.00;;;;;;;8.89;100.00;100554.16;4975012;28;20057;-86
2022/02/03 10:02:59;;;;;;;16.27;4.22;;;;;;;8.99;100.00;100543.22;4982012;28;20030;-86
2022/02/03 10:05:42;;;;;;;9.38;3.58;;;;;;;8.89;100.00;100519.28;4991618;28;20079;-86
2022/02/03 10:08:12;;;;;;;;;;;;;;;9.16;100.00;100549.41;4976241;28;20056;-88
2022/02/03 10:10:39;;;;;;;12.07;2.65;;;;;;;9.17;100.00;100551.91;4991050;28;19917;-85
2022/02/03 10:13:20;;;;;;;20.92;4.22;;;;;;;9.23;100.00;100545.00;4978634;28;20038;-87
2022/02/03 10:15:46;;;;;;;12.23;1.98;;;;;;;9.28;100.00;100541.81;4991875;28;20034;-84
2022/02/03 10:18:28;;;;;;;6.65;2.35;;;;;;;9.36;100.00;100541.78;4962727;28;20095;-84
2022/02/03 10:21:18;;;;;;;15.05;4.30;;;;;;;9.43;100.00;100537.41;4977313;28;20427;-86
2022/02/03 10:23:54;;;;;;;11.38;2.22;;;;;;;9.49;100.00;100534.00;4976488;28;20132;-89
2022/02/03 10:26:21;;;;;;;10.57;3.10;;;;;;;9.49;100.00;100531.34;4989880;28;20033;-85
2022/02/03 10:28:58;;;;;;;12.20;3.13;;;;;;;9.59;100.00;100531.97;4958670;28;20115;-86
2022/02/03 10:31:25;;;;;;;9.55;3.03;;;;;;;9.70;100.00;100544.16;4978960;28;20034;-86
2022/02/03 10:34:02;;;;;;;10.20;3.85;;;;;;;9.72;100.00;100531.41;4965142;28;20041;-87
2022/02/03 10:37:04;;;;;;;8.13;2.67;;;;;;;9.68;100.00;100533.59;4989999;28;20505;-87
2022/02/03 10:43:00;;;;;;;17.25;3.70;;;;;;;9.44;100.00;100521.13;4991059;28;20085;-86
2022/02/03 10:45:43;;;;;;;10.65;2.53;;;;;;;9.53;100.00;100535.34;4998482;28;20595;-85
2022/02/03 10:50:59;;;;;;;8.10;2.05;;;;;;;9.42;100.00;100519.63;4993210;28;20034;-88
2022/02/03 10:53:43;;;;;;;6.30;2.08;;;;;;;9.56;100.00;100535.00;4992173;28;20030;-87
2022/02/03 11:02:34;;;;;;;13.30;2.20;;;;;;;9.82;100.00;100539.25;4960470;28;20056;-87
2022/02/03 11:07:01;;;;;;;6.32;1.67;;;;;;;10.08;100.00;100496.78;4977917;28;20029;-85
2022/02/03 11:09:43;;;;;;;2.05;1.45;;;;;;;10.70;100.00;100533.41;4989022;28;20112;-87
2022/02/03 11:12:16;;;;;;;6.32;1.80;;;;;;;10.95;100.00;100536.69;4995314;28;20115;-86
2022/02/03 11:14:43;;;;;;;13.38;3.13;;;;;;;11.60;100.00;100515.44;5008422;28;20038;-83
2022/02/03 11:17:09;;;;;;;11.98;5.20;;;;;;;12.45;100.00;100501.22;4961200;28;20041;-85
2022/02/03 11:19:36;;;;;;;11.05;9.27;;;;;;;12.58;100.00;100515.84;4990701;28;20116;-83
2022/02/03 11:22:07;;;;;;;10.50;5.15;;;;;;;12.35;100.00;100495.31;4991612;28;20030;-85
2022/02/03 11:24:42;;;;;;;3.85;2.95;;;;;;;12.72;100.00;100518.44;4977564;28;20125;-83
2022/02/03 11:47:49;;;;;;;7.25;3.28;;;;;;;12.13;100.00;100482.88;4974901;28;20042;-82
2022/02/03 11:54:06;;;;;;;7.93;2.22;;;;;;;11.95;100.00;100477.94;4953233;28;20136;-86
2022/02/03 12:05:20;;;;;;;4.40;1.80;;;;;;;11.16;100.00;100447.16;4969074;28;20179;-85
2022/02/03 12:11:41;;;;;;;4.72;1.73;;;;;;;12.19;100.00;100458.69;4991615;28;20208;-82
2022/02/03 12:17:29;;;;;;;13.32;2.17;;;;;;;12.50;100.00;100430.53;4929283;28;20490;-87
2022/02/03 12:20:03;;;;;;;12.93;2.42;;;;;;;13.18;99.23;100409.13;4997766;28;20065;-85
2022/02/03 12:22:48;;;;;;;4.78;1.38;;;;;;;13.71;96.39;100422.00;4977628;28;20091;-86
2022/02/03 12:25:32;;;;;;;12.27;2.47;;;;;;;13.89;94.19;100399.75;5009817;28;20052;-84
2022/02/03 12:28:15;;;;;;;10.52;1.70;;;;;;;13.77;94.27;100416.59;4995097;28;20096;-82
2022/02/03 12:39:21;;;;;;;3.10;1.65;;;;;;;12.75;95.35;100393.97;4986988;28;20049;-87
2022/02/03 12:42:08;;;;;;;5.15;1.85;;;;;;;12.55;96.02;100401.09;4995411;28;20081;-87
2022/02/03 12:44:38;;;;;;;5.47;1.60;;;;;;;12.41;96.97;100396.63;4958813;28;20118;-85
2022/02/03 12:47:07;;;;;;;16.38;4.22;;;;;;;12.28;97.49;100381.22;4975742;28;20045;-83
2022/02/03 12:49:39;;;;;;;9.32;2.08;;;;;;;12.28;97.95;100386.63;4992076;28;20157;-86
2022/02/03 12:52:24;;;;;;;9.07;2.47;;;;;;;12.30;97.56;100373.75;4991175;28;20034;-84
2022/02/03 12:54:53;;;;;;;8.10;1.75;;;;;;;12.24;97.00;100326.84;4958815;28;20108;-87
2022/02/03 12:57:35;;;;;;;11.05;3.58;;;;;;;13.33;93.35;100360.38;4974994;28;20104;-88
2022/02/03 13:00:33;;;;;;;10.25;2.55;;;;;;;14.27;89.66;100357.56;4991481;28;20030;-88
2022/02/03 13:03:03;;;;;;;11.38;2.33;;;;;;;14.10;87.52;100364.41;4970843;28;20111;-85
2022/02/03 13:05:34;;;;;;;5.78;1.70;;;;;;;14.81;84.52;100371.00;4992741;28;20036;-85
2022/02/03 13:08:03;;;;;;;12.98;2.00;;;;;;;14.47;81.28;100365.66;4991819;28;20672;-84
2022/02/03 13:10:35;;;;;;;4.78;1.73;;;;;;;13.45;84.53;100339.84;5009857;28;20049;-86
2022/02/03 13:13:18;;;;;;;5.57;1.75;;;;;;;13.46;87.22;100368.53;4957888;28;20045;-85
2022/02/03 13:15:47;;;;;;;8.88;1.88;;;;;;;13.61;83.46;100347.56;4988334;28;20630;-83
2022/02/03 13:18:24;;;;;;;6.00;1.85;;;;;;;13.55;82.05;100344.88;4975582;28;20053;-86
2022/02/03 13:21:02;;;;;;;11.40;2.38;;;;;;;13.07;86.27;100351.16;4962776;28;20108;-85
2022/02/03 13:23:31;;;;;;;10.60;2.38;;;;;;;12.83;87.40;100354.34;4991984;28;20536;-87
2022/02/03 13:31:45;;;;;;;6.18;1.83;;;;;;;12.54;88.46;100335.56;4962536;28;20045;-86
2022/02/03 13:34:38;;;;;;;5.00;1.90;;;;;;;12.86;87.39;100329.66;4975178;28;20053;-84
2022/02/03 13:39:48;;;;;;;7.28;1.88;;;;;;;13.25;83.64;100320.03;5008459;28;20034;-84
2022/02/03 13:42:17;;;;;;;11.02;1.83;;;;;;;13.37;83.12;100305.78;4993445;28;20046;-82
2022/02/03 13:44:48;;;;;;;11.63;1.92;;;;;;;12.93;82.70;100306.25;4979013;28;20042;-84
2022/02/03 13:47:24;;;;;;;13.00;2.38;;;;;;;12.90;83.00;100317.44;4978794;28;20549;-85
2022/02/03 13:50:28;;;;;;;12.93;2.10;;;;;;;12.74;84.89;100311.34;4985177;28;20034;-88
2022/02/03 13:53:05;;;;;;;5.72;1.92;;;;;;;12.66;85.49;100308.84;4964239;28;20604;-83
2022/02/03 14:18:18;;;;;;;8.90;2.63;;;;;;;14.06;80.15;100257.75;4984481;28;20112;-82
2022/02/03 14:21:08;;;;;;;6.50;2.50;;;;;;;16.40;70.56;100245.19;5008256;28;20042;-83
2022/02/03 14:29:16;;;;;;;14.82;2.90;;;;;;;17.61;62.85;100212.56;4994197;28;20038;-84
2022/02/03 14:31:43;;;;;;;12.43;3.65;;;;;;;18.41;60.44;100217.34;4979157;28;20136;-87
2022/02/03 14:34:15;;;;;;;9.43;2.92;;;;;;;18.99;57.38;100226.41;4995365;28;20117;-83
2022/02/03 14:36:46;;;;;;;15.75;4.10;;;;;;;18.83;57.45;100197.22;4994791;28;20573;-85
2022/02/03 14:41:43;;;;;;;11.73;2.53;;;;;;;19.05;55.64;100214.56;4977257;28;20044;-85
2022/02/03 14:44:15;;;;;;;7.60;2.30;;;;;;;17.55;59.15;100217.06;4995067;28;20100;-83
2022/02/03 14:46:50;;;;;;;16.15;2.33;;;;;;;15.35;67.24;100199.91;4994953;28;20025;-86
2022/02/03 14:49:15;;;;;;;13.00;2.95;;;;;;;14.01;73.49;100204.31;4994860;28;20030;-84
2022/02/03 14:51:49;;;;;;;15.45;2.17;;;;;;;13.13;78.87;100201.88;4994233;28;20096;-82
2022/02/03 14:59:52;;;;;;;9.23;2.00;;;;;;;11.91;87.21;100189.22;4993703;28;20044;-87
2022/02/03 15:02:21;;;;;;;10.57;3.17;;;;;;;11.72;88.83;100182.63;4961577;28;20085;-82
2022/02/03 15:04:53;;;;;;;7.78;3.25;;;;;;;11.50;90.31;100178.34;4980045;28;20038;-84
2022/02/03 15:07:23;;;;;;;12.73;2.75;;;;;;;11.49;91.34;100182.91;5014360;28;20030;-87
2022/02/03 15:10:14;;;;;;;13.50;3.42;;;;;;;11.45;91.76;100179.75;4980572;28;20042;-84
2022/02/03 15:12:55;;;;;;;22.50;6.10;;;;;;;11.44;92.18;100180.78;4989230;28;20121;-88
2022/02/03 15:15:23;;;;;;;15.15;5.18;;;;;;;11.50;92.76;100189.94;4974799;28;20045;-87
2022/02/03 15:17:54;;;;;;;20.13;3.78;;;;;;;11.44;92.58;100179.97;4990831;28;20041;-86
2022/02/03 15:20:22;;;;;;;13.48;2.85;;;;;;;11.37;93.68;100182.59;5010477;28;20391;-87
2022/02/03 15:22:48;;;;;;;9.75;2.67;;;;;;;11.32;94.37;100165.38;4976173;28;20361;-85
2022/02/03 15:25:13;;;;;;;18.58;3.05;;;;;;;11.29;92.37;100136.16;5019881;28;20025;-84
2022/02/03 15:27:41;;;;;;;23.15;4.38;;;;;;;11.45;91.56;100165.47;4993478;28;20088;-84
2022/02/03 15:30:15;;;;;;;24.33;4.05;;;;;;;11.38;91.93;100146.59;4978456;28;20036;-84
2022/02/03 15:32:45;;;;;;;25.25;4.53;;;;;;;11.52;91.79;100160.16;4994295;28;20531;-87
2022/02/03 15:35:25;;;;;;;12.45;2.28;;;;;;;11.57;91.72;100144.22;4993513;28;20117;-85
2022/02/03 15:37:53;;;;;;;21.30;4.18;;;;;;;11.66;91.66;100130.38;4994922;28;20029;-82
2022/02/03 15:40:23;;;;;;;17.88;5.63;;;;;;;11.67;92.06;100125.88;4977488;28;20417;-84
2022/02/03 15:45:25;;;;;;;25.80;3.70;;;;;;;11.62;92.76;100126.44;4991811;28;20085;-83
2022/02/03 15:48:25;;;;;;;21.20;3.58;;;;;;;11.52;93.30;100133.22;4992455;28;20042;-87
2022/02/03 15:51:20;;;;;;;21.08;3.58;;;;;;;11.41;94.07;100126.53;4994161;28;20491;-86
2022/02/03 16:18:25;;;;;;;13.50;3.33;;;;;;;10.69;100.00;100079.16;4992636;28;20121;-79
2022/02/03 16:21:01;;;;;;;16.38;4.13;;;;;;;10.61;100.00;100088.22;4992406;28;20543;-80
2022/02/03 16:26:46;;;;;;;9.77;2.80;;;;;;;10.54;100.00;100080.06;4988915;28;20033;-78
2022/02/03 16:53:47;;;;;;;20.42;4.40;;;;;;;9.53;100.00;100025.41;4994675;28;20480;-80
2022/02/03 16:56:16;;;;;;;18.77;4.15;;;;;;;9.56;100.00;100025.03;4993762;28;20041;-77
2022/02/03 16:58:44;;;;;;;21.05;6.30;;;;;;;9.50;100.00;100023.13;4990549;28;20053;-81
2022/02/03 17:01:10;;;;;;;21.02;5.15;;;;;;;9.35;100.00;100020.44;4981412;28;20041;-80
2022/02/03 17:03:38;;;;;;;16.50;4.05;;;;;;;9.29;100.00;100017.63;4981181;28;20035;-79
2022/02/03 17:06:10;;;;;;;12.73;3.60;;;;;;;9.17;100.00;100015.44;5006525;28;20065;-80
2022/02/03 17:08:36;;;;;;;13.77;3.22;;;;;;;9.19;100.00;100017.94;4989818;28;20042;-80
2022/02/03 17:11:02;;;;;;;7.40;2.42;;;;;;;9.20;100.00;100016.91;4959848;28;20049;-80
2022/02/03 17:13:28;;;;;;;3.20;1.23;;;;;;;9.17;100.00;100017.28;4990607;28;21257;-80
2022/02/03 17:15:54;;;;;;;18.00;3.67;;;;;;;9.05;100.00;99987.44;4976176;28;20037;-81
2022/02/03 17:18:19;;;;;;;1.70;1.30;;;;;;;8.90;100.00;99981.22;4976119;28;20038;-80
2022/02/03 17:20:46;;;;;;;11.88;2.75;;;;;;;9.10;100.00;100001.09;4980068;28;20042;-79
2022/02/03 17:23:18;;;;;;;7.75;2.15;;;;;;;9.07;100.00;100001.47;4994525;28;20034;-81
2022/02/03 17:26:23;;;;;;;3.80;1.10;;;;;;;9.15;100.00;99990.63;4981363;28;20361;-80
2022/02/03 17:31:20;;;;;;;3.00;1.25;;;;;;;9.15;100.00;99996.00;4980814;28;20037;-80
2022/02/03 18:07:26;;;;;;;2.30;0.93;;;;;;;9.20;100.00;99995.44;4980508;28;20046;-83
2022/02/03 18:10:12;;;;;;;0.65;0.65;;;;;;;9.14;100.00;99993.53;5000130;28;20460;-83
2022/02/03 18:32:33;;;;;;;1.88;1.40;;;;;;;6.92;100.00;100071.69;4970554;28;20408;-80
2022/02/03 18:51:31;;;;;;;1.70;0.88;;;;;;;6.51;100.00;100110.91;4992091;28;20052;-82
2022/02/03 18:54:16;;;;;;;1.00;0.73;;;;;;;6.51;100.00;100121.59;4992157;28;20041;-79
2022/02/03 18:56:52;;;;;;;0.40;0.40;;;;;;;6.34;100.00;100096.72;4992793;28;20042;-80
2022/02/03 19:23:43;;;;;;;2.83;1.55;;;;;;;5.89;100.00;100164.59;4978062;28;20022;-80
2022/02/03 20:09:12;;;;;;;0.90;0.90;;;;;;;5.10;100.00;100249.06;4975464;28;20033;-80
2022/02/03 20:11:38;;;;;;;0.50;0.50;;;;;;;4.99;100.00;100244.81;4972521;28;20034;-82
2022/02/03 20:14:12;;;;;;;0.95;0.73;;;;;;;5.05;100.00;100259.34;4991795;28;20168;-80
2022/02/03 20:16:45;;;;;;;0.82;0.82;;;;;;;5.04;100.00;100255.03;4993009;28;20045;-81
2022/02/03 20:19:13;;;;;;;1.00;0.93;;;;;;;5.02;100.00;100241.00;4990070;28;21014;-83
2022/02/03 20:21:41;;;;;;;0.82;0.82;;;;;;;5.02;100.00;100235.69;4992150;28;20033;-80
2022/02/03 20:24:12;;;;;;;0.40;0.40;;;;;;;4.98;100.00;100245.81;4991509;28;20034;-80
2022/02/03 20:26:46;;;;;;;0.65;0.65;;;;;;;5.02;100.00;100259.66;4991729;28;20108;-82
2022/02/03 20:29:17;;;;;;;0.40;0.40;;;;;;;4.98;100.00;100258.31;4959313;28;20060;-81
2022/02/03 20:31:44;;;;;;;0.73;0.73;;;;;;;4.96;100.00;100260.28;4990494;28;20049;-81
2022/02/03 20:34:10;;;;;;;0.50;0.50;;;;;;;4.89;100.00;100256.53;4990896;28;20037;-80
2022/02/03 20:36:36;;;;;;;0.68;0.68;;;;;;;4.77;100.00;100246.09;4975986;28;20381;-81
2022/02/03 20:39:04;;;;;;;0.40;0.40;;;;;;;4.94;100.00;100272.91;4973527;28;20040;-79
2022/02/03 20:41:32;;;;;;;0.50;0.50;;;;;;;4.94;100.00;100286.22;4975590;28;20107;-82
2022/02/03 20:43:58;;;;;;;0.68;0.68;;;;;;;4.85;100.00;100277.31;4990895;28;20508;-83
2022/02/03 20:46:26;;;;;;;0.50;0.50;;;;;;;4.94;100.00;100291.56;5008889;28;20049;-79
2022/02/03 20:48:52;;;;;;;0.50;0.50;;;;;;;4.95;100.00;100294.06;4958222;28;20046;-83
2022/02/03 20:51:20;;;;;;;0.50;0.50;;;;;;;4.94;100.00;100291.56;4991689;28;20115;-80
2022/02/03 20:53:47;;;;;;;0.40;0.40;;;;;;;4.88;100.00;100271.69;4982052;28;20041;-79
2022/02/03 20:56:16;;;;;;;0.40;0.40;;;;;;;4.97;100.00;100296.56;4982589;28;20104;-80
2022/02/03 20:58:43;;;;;;;0.40;0.40;;;;;;;4.89;100.00;100284.00;4994684;28;20034;-83
2022/02/03 21:01:18;;;;;;;0.57;0.57;;;;;;;4.94;100.00;100291.56;4995512;28;20042;-83
2022/02/03 21:03:50;;;;;;;0.60;0.60;;;;;;;4.85;100.00;100290.63;4964338;28;20022;-78
2022/02/03 21:06:17;;;;;;;3.38;1.23;;;;;;;4.90;100.00;100304.34;4980132;28;20096;-82
2022/02/03 21:08:49;;;;;;;1.58;0.95;;;;;;;4.82;100.00;100313.09;4990650;28;20404;-80
2022/02/03 21:11:15;;;;;;;0.60;0.60;;;;;;;4.75;100.00;100304.00;4973389;28;20034;-79
2022/02/03 21:13:41;;;;;;;3.42;2.67;;;;;;;4.69;100.00;100309.94;4979115;28;20635;-82
2022/02/03 21:16:08;;;;;;;1.52;1.00;;;;;;;4.63;100.00;100310.50;5009398;28;20052;-80
2022/02/03 21:18:38;;;;;;;0.50;0.50;;;;;;;4.60;100.00;100308.16;4993501;28;20116;-82
2022/02/03 21:21:04;;;;;;;0.40;0.40;;;;;;;4.56;100.00;100310.28;4979442;28;20033;-81
2022/02/03 21:23:33;;;;;;;0.40;0.40;;;;;;;4.54;100.00;100309.59;4958870;28;20034;-81
2022/02/03 21:26:01;;;;;;;0.40;0.40;;;;;;;4.48;100.00;100302.19;4988988;28;20138;-80
2022/02/03 21:28:32;;;;;;;0.40;0.40;;;;;;;4.26;100.00;100282.13;4963457;28;20037;-80
2022/02/03 21:31:00;;;;;;;0.47;0.47;;;;;;;4.44;100.00;100316.78;4992371;28;20480;-82
2022/02/03 21:33:35;;;;;;;0.50;0.50;;;;;;;4.31;100.00;100301.16;4976688;28;20092;-80
2022/02/03 21:36:10;;;;;;;0.40;0.40;;;;;;;4.41;100.00;100330.38;4991961;28;20041;-80
2022/02/03 21:38:39;;;;;;;0.40;0.40;;;;;;;4.35;100.00;100317.66;4978592;28;20480;-81
2022/02/03 21:41:07;;;;;;;0.50;0.50;;;;;;;4.37;100.00;100326.34;5010027;28;20033;-83
2022/02/03 21:43:33;;;;;;;0.40;0.40;;;;;;;4.35;100.00;100342.47;4995166;28;20124;-83
2022/02/03 21:46:01;;;;;;;0.50;0.50;;;;;;;4.24;100.00;100325.84;4959436;28;20200;-80
2022/02/03 21:48:29;;;;;;;0.47;0.47;;;;;;;4.33;100.00;100346.25;4976197;28;20091;-83
2022/02/03 21:50:58;;;;;;;0.57;0.57;;;;;;;4.17;100.00;100325.56;4978653;28;20042;-83
2022/02/03 21:53:28;;;;;;;0.50;0.50;;;;;;;4.28;100.00;100343.19;5008298;28;20056;-83
2022/02/03 21:55:55;;;;;;;0.50;0.50;;;;;;;4.25;100.00;100338.97;4981413;28;20034;-79
2022/02/03 21:58:25;;;;;;;0.50;0.50;;;;;;;4.17;100.00;100329.06;4982515;28;20029;-80
2022/02/03 22:00:54;;;;;;;0.43;0.43;;;;;;;4.22;100.00;100333.13;4982788;28;20080;-81
2022/02/03 22:03:24;;;;;;;0.40;0.40;;;;;;;4.19;100.00;100334.25;4992957;28;20037;-82
2022/02/03 22:05:59;;;;;;;0.40;0.40;;;;;;;4.23;100.00;100337.44;4991314;28;20034;-79
2022/02/03 22:08:26;;;;;;;0.40;0.40;;;;;;;4.11;100.00;100331.47;4977899;28;20447;-82
2022/02/03 22:10:59;;;;;;;0.50;0.50;;;;;;;4.24;100.00;100350.63;4963692;28;20092;-80
2022/02/03 22:13:33;;;;;;;0.50;0.50;;;;;;;4.19;100.00;100345.72;4979575;28;20492;-82
2022/02/03 22:16:05;;;;;;;0.40;0.40;;;;;;;4.22;100.00;100346.44;4963225;28;20103;-79
2022/02/03 22:18:34;;;;;;;0.40;0.40;;;;;;;4.20;100.00;100354.53;4995997;28;20068;-80
2022/02/03 22:21:07;;;;;;;0.40;0.40;;;;;;;4.11;100.00;100342.97;4995154;28;20065;-83